Time;durP1;ratioP1;P1;durP2;ratioP2;P2;SDS_P1;SDS_P2;PMS_P1;PMS_P2;Temp;Humidity;BMP_temperature;BMP_pressure;BME280_temperature;BME280_humidity;BME280_pressure;Samples;Min_cycle;Max_cycle;Signal;HPM_P1;HPM_P2
2022/07/05 00:00:10;;;;;;;1.60;1.50;;;16.30;99.90;;;;;;7387415;19;21272;-75
2022/07/05 00:02:39;;;;;;;1.60;1.50;;;16.30;99.90;;;;;;7386841;19;20345;-73
2022/07/05 00:05:04;;;;;;;1.60;1.43;;;16.30;99.90;;;;;;7383190;19;20824;-74
2022/07/05 00:07:30;;;;;;;1.50;1.40;;;16.30;99.90;;;;;;7388152;19;20334;-76
2022/07/05 00:09:56;;;;;;;1.20;1.20;;;16.20;99.90;;;;;;7387686;19;20342;-72
2022/07/05 00:12:29;;;;;;;1.40;1.30;;;16.20;99.90;;;;;;7386314;19;20770;-74
2022/07/05 00:14:55;;;;;;;1.10;1.10;;;16.20;99.90;;;;;;7384765;19;20950;-73
2022/07/05 00:17:20;;;;;;;1.65;1.50;;;16.20;99.90;;;;;;7386369;19;20315;-74
2022/07/05 00:19:46;;;;;;;1.60;1.50;;;16.10;99.90;;;;;;7387561;19;20684;-72
2022/07/05 00:22:12;;;;;;;1.93;1.80;;;16.10;99.90;;;;;;7384967;19;20313;-75
2022/07/05 00:24:37;;;;;;;1.85;1.30;;;16.10;99.90;;;;;;7384563;19;20392;-72
2022/07/05 00:27:03;;;;;;;1.60;1.50;;;16.00;99.90;;;;;;7383863;19;20329;-72
2022/07/05 00:29:29;;;;;;;1.60;1.50;;;16.00;99.90;;;;;;7385902;19;20333;-74
2022/07/05 00:31:55;;;;;;;1.70;1.60;;;15.90;99.90;;;;;;7382786;19;20321;-74
2022/07/05 00:34:21;;;;;;;1.60;1.50;;;15.90;99.90;;;;;;7383784;19;20326;-75
2022/07/05 00:36:46;;;;;;;1.60;1.45;;;15.90;99.90;;;;;;7383152;19;20341;-76
2022/07/05 00:39:12;;;;;;;1.43;1.33;;;15.90;99.90;;;;;;7385356;19;20353;-73
2022/07/05 00:41:38;;;;;;;1.60;1.50;;;15.80;99.90;;;;;;7382679;19;20340;-72
2022/07/05 00:44:05;;;;;;;1.70;1.60;;;15.90;99.90;;;;;;7383010;19;20774;-73
2022/07/05 00:46:30;;;;;;;1.60;1.50;;;15.80;99.90;;;;;;7382287;19;20385;-73
2022/07/05 00:48:57;;;;;;;1.70;1.60;;;15.90;99.90;;;;;;7384828;19;20309;-72
2022/07/05 00:51:22;;;;;;;2.08;1.67;;;15.90;99.90;;;;;;7384112;19;20322;-73
2022/07/05 00:53:48;;;;;;;1.40;1.30;;;15.90;99.90;;;;;;7384229;19;20384;-74
2022/07/05 00:56:14;;;;;;;1.70;1.60;;;15.80;99.90;;;;;;7381108;19;20370;-74
2022/07/05 00:58:40;;;;;;;1.50;1.40;;;15.80;99.90;;;;;;7383340;19;20337;-73
2022/07/05 01:01:07;;;;;;;2.10;1.90;;;15.70;99.90;;;;;;7380902;19;20323;-73
2022/07/05 01:03:33;;;;;;;2.15;1.55;;;15.70;99.90;;;;;;7382608;19;20357;-75
2022/07/05 01:06:00;;;;;;;1.90;1.70;;;15.70;99.90;;;;;;7379620;19;20434;-73
2022/07/05 01:08:25;;;;;;;1.58;1.48;;;15.60;99.90;;;;;;7382775;19;20321;-73
2022/07/05 01:10:51;;;;;;;1.70;1.60;;;15.60;99.90;;;;;;7384365;19;20307;-75
2022/07/05 01:13:17;;;;;;;1.75;1.65;;;15.50;99.90;;;;;;7381455;19;20319;-77
2022/07/05 01:15:42;;;;;;;1.80;1.70;;;15.50;99.90;;;;;;7375637;19;20352;-76
2022/07/05 01:18:08;;;;;;;1.60;1.50;;;15.40;99.90;;;;;;7378084;19;20309;-73
2022/07/05 01:20:34;;;;;;;1.60;1.50;;;15.40;99.90;;;;;;7377023;19;20341;-73
2022/07/05 01:23:01;;;;;;;2.58;1.60;;;15.40;99.90;;;;;;7379554;19;20316;-72
2022/07/05 01:25:27;;;;;;;1.83;1.70;;;15.40;99.90;;;;;;7374546;19;20338;-78
2022/07/05 01:27:53;;;;;;;1.90;1.80;;;15.30;99.90;;;;;;7378781;19;20305;-77
2022/07/05 01:30:19;;;;;;;1.60;1.50;;;15.30;99.90;;;;;;7376943;19;20321;-74
2022/07/05 01:32:44;;;;;;;1.70;1.60;;;15.20;99.90;;;;;;7373751;19;20333;-74
2022/07/05 01:35:10;;;;;;;1.70;1.60;;;15.10;99.90;;;;;;7372298;19;20340;-76
2022/07/05 01:37:36;;;;;;;1.67;1.58;;;15.10;99.90;;;;;;7378181;19;20344;-76
2022/07/05 01:40:03;;;;;;;2.03;1.70;;;15.00;99.90;;;;;;7376116;19;20317;-76
2022/07/05 01:42:28;;;;;;;2.00;1.80;;;14.90;99.90;;;;;;7377795;19;20355;-71
2022/07/05 01:44:54;;;;;;;1.70;1.50;;;14.90;99.90;;;;;;7375332;19;20865;-73
2022/07/05 01:47:19;;;;;;;1.60;1.50;;;14.80;99.90;;;;;;7376397;19;20341;-74
2022/07/05 01:49:46;;;;;;;1.37;1.37;;;14.80;99.90;;;;;;7377350;19;20336;-73
2022/07/05 01:52:12;;;;;;;2.88;2.00;;;14.80;99.90;;;;;;7375876;19;20324;-76
2022/07/05 01:54:39;;;;;;;1.88;1.77;;;14.80;99.90;;;;;;7377306;19;20345;-75
2022/07/05 01:57:06;;;;;;;1.70;1.60;;;14.80;99.90;;;;;;7374117;19;20354;-75
2022/07/05 01:59:34;;;;;;;1.75;1.52;;;14.80;99.90;;;;;;7376937;19;20757;-73
2022/07/05 02:02:00;;;;;;;1.70;1.60;;;14.90;99.90;;;;;;7376281;19;20312;-72
2022/07/05 02:04:26;;;;;;;1.70;1.60;;;14.80;99.90;;;;;;7378684;19;20727;-73
2022/07/05 02:06:51;;;;;;;1.95;1.85;;;14.80;99.90;;;;;;7373516;19;20372;-76
2022/07/05 02:09:17;;;;;;;1.87;1.77;;;14.70;99.90;;;;;;7378836;19;20337;-76
2022/07/05 02:11:42;;;;;;;1.70;1.60;;;14.70;99.90;;;;;;7373605;19;20362;-75
2022/07/05 02:14:08;;;;;;;1.70;1.60;;;14.80;99.90;;;;;;7377114;19;20320;-75
2022/07/05 02:16:37;;;;;;;2.20;2.00;;;14.70;99.90;;;;;;7373008;19;20693;-75
2022/07/05 02:19:03;;;;;;;1.80;1.70;;;14.70;99.90;;;;;;7377234;19;20331;-75
2022/07/05 02:21:32;;;;;;;1.70;1.60;;;14.70;99.90;;;;;;7374545;19;20324;-72
2022/07/05 02:23:58;;;;;;;1.80;1.70;;;14.70;99.90;;;;;;7375481;19;20725;-75
2022/07/05 02:26:27;;;;;;;1.77;1.67;;;14.60;99.90;;;;;;7371543;19;20345;-74
2022/07/05 02:28:53;;;;;;;2.13;1.73;;;14.50;99.90;;;;;;7376722;19;20983;-76
2022/07/05 02:31:20;;;;;;;2.72;1.70;;;14.40;99.90;;;;;;7375020;19;20329;-79
2022/07/05 02:33:48;;;;;;;1.60;1.50;;;14.40;99.90;;;;;;7376795;19;20417;-79
2022/07/05 02:36:13;;;;;;;2.10;2.00;;;14.40;99.90;;;;;;7373247;19;20388;-76
2022/07/05 02:38:39;;;;;;;2.20;1.80;;;14.40;99.90;;;;;;7375270;19;20393;-77
2022/07/05 02:41:07;;;;;;;1.73;1.63;;;14.30;99.90;;;;;;7374918;19;20862;-74
2022/07/05 02:43:33;;;;;;;2.10;1.92;;;14.20;99.90;;;;;;7376864;19;20387;-75
2022/07/05 02:46:00;;;;;;;2.00;1.90;;;14.20;99.90;;;;;;7380044;19;20655;-76
2022/07/05 02:48:25;;;;;;;2.00;1.90;;;14.20;99.90;;;;;;7383847;19;20293;-78
2022/07/05 02:50:51;;;;;;;1.92;1.83;;;14.00;99.90;;;;;;7381916;19;20340;-79
2022/07/05 02:53:17;;;;;;;2.00;1.80;;;14.00;99.90;;;;;;7382304;19;21178;-77
2022/07/05 02:55:42;;;;;;;2.57;2.27;;;14.00;99.90;;;;;;7376242;19;20328;-77
2022/07/05 02:58:08;;;;;;;2.00;1.90;;;14.10;99.90;;;;;;7382685;19;20349;-75
2022/07/05 03:00:34;;;;;;;1.83;1.70;;;14.10;99.90;;;;;;7380817;19;20344;-77
2022/07/05 03:03:00;;;;;;;2.03;1.93;;;14.10;99.90;;;;;;7381658;19;20843;-75
2022/07/05 03:05:28;;;;;;;1.88;1.67;;;14.00;99.90;;;;;;7377324;19;20340;-76
2022/07/05 03:07:58;;;;;;;1.63;1.52;;;14.00;99.90;;;;;;7381245;19;20984;-75
2022/07/05 03:10:25;;;;;;;2.10;1.85;;;14.00;99.90;;;;;;7382581;19;20325;-76
2022/07/05 03:12:52;;;;;;;2.08;1.90;;;14.00;99.90;;;;;;7380607;19;20665;-78
2022/07/05 03:15:18;;;;;;;1.90;1.80;;;13.90;99.90;;;;;;7376875;19;20345;-76
2022/07/05 03:17:43;;;;;;;1.70;1.60;;;13.90;99.90;;;;;;7383905;19;20360;-76
2022/07/05 03:20:10;;;;;;;2.27;2.10;;;13.90;99.90;;;;;;7380928;19;21215;-74
2022/07/05 03:22:36;;;;;;;1.90;1.80;;;13.90;99.90;;;;;;7381527;19;20328;-73
2022/07/05 03:25:03;;;;;;;2.00;1.90;;;13.90;99.90;;;;;;7372368;19;20362;-75
2022/07/05 03:27:30;;;;;;;1.90;1.80;;;13.90;99.90;;;;;;7382505;19;20356;-74
2022/07/05 03:29:57;;;;;;;1.95;1.70;;;13.90;99.90;;;;;;7382208;19;20321;-77
2022/07/05 03:32:23;;;;;;;1.90;1.80;;;13.90;99.90;;;;;;7381701;19;20317;-78
2022/07/05 03:34:49;;;;;;;1.70;1.60;;;13.90;99.90;;;;;;7377824;19;20328;-76
2022/07/05 03:37:17;;;;;;;2.20;2.10;;;13.90;99.90;;;;;;7378585;19;20347;-74
2022/07/05 03:39:42;;;;;;;2.38;2.17;;;14.00;99.90;;;;;;7381969;19;20333;-80
2022/07/05 03:42:09;;;;;;;2.08;1.98;;;14.00;99.90;;;;;;7380360;19;20308;-77
2022/07/05 03:44:34;;;;;;;2.00;1.90;;;14.10;99.90;;;;;;7380174;19;20337;-78
2022/07/05 03:47:03;;;;;;;2.10;1.90;;;14.10;99.90;;;;;;7361970;19;20352;-79
2022/07/05 03:49:28;;;;;;;2.40;2.20;;;14.00;99.90;;;;;;7379744;19;21021;-73
2022/07/05 03:51:54;;;;;;;2.65;2.45;;;14.00;99.90;;;;;;7379748;19;20309;-77
2022/07/05 03:54:20;;;;;;;2.67;2.40;;;14.10;99.90;;;;;;7380882;19;20332;-77
2022/07/05 03:56:46;;;;;;;2.80;2.60;;;14.00;99.90;;;;;;7375809;19;20350;-78
2022/07/05 03:59:13;;;;;;;2.65;2.45;;;14.00;99.90;;;;;;7382868;19;20347;-75
2022/07/05 04:01:39;;;;;;;2.60;2.40;;;13.90;99.90;;;;;;7379289;19;20667;-78
2022/07/05 04:04:05;;;;;;;2.78;2.53;;;14.00;99.90;;;;;;7379437;19;20793;-75
2022/07/05 04:06:31;;;;;;;3.53;3.22;;;14.10;99.90;;;;;;7374383;19;20340;-78
2022/07/05 04:08:59;;;;;;;3.22;2.95;;;14.10;99.90;;;;;;7381670;19;20327;-74
2022/07/05 04:11:25;;;;;;;2.80;2.50;;;14.10;99.90;;;;;;7378514;19;20309;-74
2022/07/05 04:13:52;;;;;;;3.08;2.85;;;14.10;99.90;;;;;;7381174;19;20311;-74
2022/07/05 04:16:18;;;;;;;2.97;2.67;;;14.20;99.90;;;;;;7374664;19;20705;-76
2022/07/05 04:18:43;;;;;;;2.90;2.70;;;14.20;99.90;;;;;;7379520;19;20336;-78
2022/07/05 04:21:09;;;;;;;3.03;2.83;;;14.20;99.90;;;;;;7379297;19;20316;-74
2022/07/05 04:23:35;;;;;;;3.67;3.33;;;14.20;99.90;;;;;;7379138;19;20325;-76
2022/07/05 04:26:01;;;;;;;3.83;3.50;;;14.10;99.90;;;;;;7374979;19;20337;-75
2022/07/05 04:28:45;;;;;;;4.65;4.13;;;14.10;99.90;;;;;;7381774;19;20309;-77
2022/07/05 04:31:17;;;;;;;3.65;3.35;;;14.10;99.90;;;;;;7380428;19;20344;-77
2022/07/05 04:33:45;;;;;;;5.55;4.72;;;14.20;99.90;;;;;;7375807;19;20349;-73
2022/07/05 04:36:15;;;;;;;5.00;4.60;;;14.10;99.90;;;;;;7373286;19;20333;-75
2022/07/05 04:38:41;;;;;;;5.60;5.00;;;14.00;99.90;;;;;;7379583;19;20333;-74
2022/07/05 04:41:07;;;;;;;5.72;5.13;;;13.90;99.90;;;;;;7379007;19;20346;-77
2022/07/05 04:43:34;;;;;;;6.05;5.45;;;13.90;99.90;;;;;;7377789;19;20833;-75
2022/07/05 04:46:02;;;;;;;6.93;6.22;;;13.90;99.90;;;;;;7369289;19;20340;-75
2022/07/05 04:48:27;;;;;;;11.43;9.20;;;14.00;99.90;;;;;;7378279;19;20341;-74
2022/07/05 04:50:53;;;;;;;27.75;17.13;;;14.00;99.90;;;;;;7378893;19;20652;-74
2022/07/05 04:53:19;;;;;;;23.43;17.37;;;14.10;99.90;;;;;;7376078;19;20312;-76
2022/07/05 04:55:44;;;;;;;22.42;16.90;;;14.10;99.90;;;;;;7374414;19;20875;-74
2022/07/05 04:58:11;;;;;;;77.60;51.13;;;14.20;99.90;;;;;;7378926;19;20314;-75
2022/07/05 05:00:37;;;;;;;89.18;60.08;;;14.30;99.90;;;;;;7375121;19;20373;-73
2022/07/05 05:03:02;;;;;;;125.17;80.47;;;14.40;99.90;;;;;;7378394;19;20328;-73
2022/07/05 05:05:28;;;;;;;190.87;125.33;;;14.50;99.90;;;;;;7373986;19;20351;-75
2022/07/05 05:07:53;;;;;;;240.38;161.63;;;14.70;99.90;;;;;;7378129;19;20312;-73
2022/07/05 05:10:19;;;;;;;264.07;183.93;;;14.80;99.90;;;;;;7379031;19;20320;-74
2022/07/05 05:12:44;;;;;;;286.93;199.03;;;14.90;99.90;;;;;;7378236;19;20353;-75
2022/07/05 05:15:10;;;;;;;332.45;236.95;;;15.00;99.90;;;;;;7373692;19;20344;-75
2022/07/05 05:17:39;;;;;;;366.83;267.27;;;15.20;99.90;;;;;;7373565;19;20377;-73
2022/07/05 05:20:07;;;;;;;297.38;213.68;;;15.30;99.90;;;;;;7376561;19;20353;-73
2022/07/05 05:22:32;;;;;;;320.80;230.77;;;15.50;99.90;;;;;;7376366;19;20990;-73
2022/07/05 05:24:58;;;;;;;356.27;258.05;;;15.70;99.90;;;;;;7371286;19;20349;-74
2022/07/05 05:27:23;;;;;;;386.60;282.43;;;15.90;99.90;;;;;;7376034;19;20347;-77
2022/07/05 05:29:49;;;;;;;418.27;305.23;;;16.10;99.90;;;;;;7377490;19;20337;-75
2022/07/05 05:32:14;;;;;;;384.23;277.83;;;16.20;99.90;;;;;;7373792;19;20332;-74
2022/07/05 05:34:40;;;;;;;340.43;248.30;;;16.40;99.90;;;;;;7372199;19;20359;-76
2022/07/05 05:37:05;;;;;;;395.07;297.93;;;16.50;99.90;;;;;;7374059;19;20320;-77
2022/07/05 05:39:31;;;;;;;369.52;269.20;;;16.70;99.90;;;;;;7379847;19;20874;-77
2022/07/05 05:41:56;;;;;;;365.10;261.10;;;16.90;99.90;;;;;;7376854;19;20368;-76
2022/07/05 05:44:22;;;;;;;399.80;293.80;;;17.10;99.90;;;;;;7374887;19;20325;-76
2022/07/05 05:46:48;;;;;;;420.30;309.45;;;17.30;99.90;;;;;;7375634;19;20682;-74
2022/07/05 05:49:13;;;;;;;400.75;299.65;;;17.50;99.90;;;;;;7378632;19;20356;-76
2022/07/05 05:51:39;;;;;;;357.03;263.97;;;17.70;99.90;;;;;;7380055;19;20327;-73
2022/07/05 05:54:04;;;;;;;310.52;225.85;;;17.90;99.90;;;;;;7376680;19;20309;-74
2022/07/05 05:56:30;;;;;;;370.70;277.48;;;18.10;99.90;;;;;;7373092;19;20337;-74
2022/07/05 05:58:55;;;;;;;314.33;222.50;;;18.40;99.90;;;;;;7378771;19;20674;-75
2022/07/05 06:01:21;;;;;;;285.13;199.77;;;18.60;99.90;;;;;;7377187;19;20320;-74
2022/07/05 06:03:46;;;;;;;276.55;191.48;;;18.80;99.90;;;;;;7378645;19;20355;-75
2022/07/05 06:06:12;;;;;;;302.60;222.40;;;19.10;99.90;;;;;;7373109;19;20764;-75
2022/07/05 06:08:38;;;;;;;254.90;185.03;;;19.40;99.90;;;;;;7377541;19;20420;-78
2022/07/05 06:11:04;;;;;;;237.20;164.98;;;19.50;99.90;;;;;;7377769;19;21178;-76
2022/07/05 06:13:29;;;;;;;228.63;157.10;;;19.70;99.90;;;;;;7377942;19;20308;-73
2022/07/05 06:15:55;;;;;;;202.10;140.18;;;19.90;99.90;;;;;;7372490;19;20297;-76
2022/07/05 06:18:22;;;;;;;206.27;143.20;;;20.10;99.90;;;;;;7375536;19;20388;-76
2022/07/05 06:20:47;;;;;;;209.33;149.27;;;20.20;99.90;;;;;;7363717;19;20355;-79
2022/07/05 06:23:13;;;;;;;177.73;128.25;;;20.40;99.90;;;;;;7372017;19;20341;-74
2022/07/05 06:25:39;;;;;;;198.17;136.83;;;20.70;99.90;;;;;;7367725;19;21009;-77
2022/07/05 06:28:06;;;;;;;190.95;133.73;;;21.00;99.90;;;;;;7374435;19;20332;-78
2022/07/05 06:30:32;;;;;;;191.38;135.32;;;21.30;99.90;;;;;;7374547;19;20333;-77
2022/07/05 06:32:58;;;;;;;202.88;142.80;;;21.40;99.90;;;;;;7374499;19;20348;-75
2022/07/05 06:35:24;;;;;;;196.80;139.80;;;21.60;99.90;;;;;;7372026;19;20332;-75
2022/07/05 06:37:54;;;;;;;198.93;140.47;;;21.70;99.90;;;;;;7372888;19;20344;-76
2022/07/05 06:40:21;;;;;;;172.48;119.03;;;21.80;99.90;;;;;;7377562;19;20316;-78
2022/07/05 06:42:46;;;;;;;167.20;117.85;;;21.90;99.90;;;;;;7373602;19;20366;-76
2022/07/05 06:45:13;;;;;;;180.77;127.93;;;22.10;99.90;;;;;;7370623;19;20333;-77
2022/07/05 06:47:39;;;;;;;180.60;128.23;;;22.30;99.90;;;;;;7376674;19;20368;-82
2022/07/05 06:50:05;;;;;;;188.60;131.53;;;22.50;99.90;;;;;;7373890;19;20343;-78
2022/07/05 06:52:32;;;;;;;159.75;111.60;;;22.60;99.90;;;;;;7376223;19;20701;-74
2022/07/05 06:55:00;;;;;;;151.70;106.43;;;22.80;99.90;;;;;;7371758;19;21828;-77
2022/07/05 06:57:26;;;;;;;149.07;105.05;;;23.00;99.90;;;;;;7375341;19;21396;-75
2022/07/05 06:59:52;;;;;;;138.88;100.15;;;23.20;99.90;;;;;;7376752;19;20328;-75
2022/07/05 07:02:18;;;;;;;124.43;88.97;;;23.30;99.90;;;;;;7373390;19;20596;-76
2022/07/05 07:04:44;;;;;;;121.72;84.75;;;23.50;99.90;;;;;;7370473;19;20734;-75
2022/07/05 07:09:58;;;;;;;107.97;74.13;;;23.70;99.90;;;;;;7374776;19;20695;-76
2022/07/05 07:12:23;;;;;;;80.35;58.13;;;23.90;99.90;;;;;;7376838;19;20334;-74
2022/07/05 07:14:49;;;;;;;75.78;56.10;;;24.10;99.90;;;;;;7371693;19;20338;-74
2022/07/05 07:17:14;;;;;;;73.70;53.07;;;24.30;99.90;;;;;;7374213;19;20805;-76
2022/07/05 07:19:40;;;;;;;88.93;65.30;;;24.40;99.90;;;;;;7373845;19;20353;-76
2022/07/05 07:22:05;;;;;;;81.93;59.07;;;24.20;99.90;;;;;;7375489;19;20352;-77
2022/07/05 07:24:31;;;;;;;94.60;65.57;;;24.20;99.90;;;;;;7372606;19;20356;-76
2022/07/05 07:27:03;;;;;;;88.60;62.83;;;24.30;99.90;;;;;;7368845;19;20404;-76
2022/07/05 07:29:29;;;;;;;44.00;29.85;;;24.60;99.90;;;;;;7375327;19;21004;-76
2022/07/05 07:31:55;;;;;;;34.67;26.35;;;24.60;99.90;;;;;;7380344;19;20673;-74
2022/07/05 07:34:21;;;;;;;19.25;12.90;;;24.80;99.90;;;;;;7382104;19;20324;-74
2022/07/05 07:36:46;;;;;;;11.60;9.53;;;24.90;97.40;;;;;;7374774;19;20340;-76
2022/07/05 07:39:12;;;;;;;3.70;2.73;;;24.90;98.30;;;;;;7381731;19;20352;-76
2022/07/05 07:41:38;;;;;;;2.00;1.80;;;24.90;96.20;;;;;;7380129;19;20871;-78
2022/07/05 07:44:03;;;;;;;2.10;2.00;;;24.80;94.90;;;;;;7381342;19;20407;-76
2022/07/05 07:46:29;;;;;;;2.73;2.30;;;25.20;94.90;;;;;;7376232;19;21102;-74
2022/07/05 07:48:54;;;;;;;2.90;2.57;;;25.40;96.30;;;;;;7381823;19;20324;-74
2022/07/05 07:51:21;;;;;;;2.83;2.00;;;25.70;94.50;;;;;;7380594;19;20676;-74
2022/07/05 07:53:47;;;;;;;2.08;1.88;;;25.90;93.60;;;;;;7379857;19;20345;-75
2022/07/05 07:56:12;;;;;;;2.38;2.08;;;26.00;92.60;;;;;;7375481;19;20343;-75
2022/07/05 07:58:38;;;;;;;2.03;1.87;;;25.50;90.00;;;;;;7381359;19;20333;-77
2022/07/05 08:01:05;;;;;;;2.27;1.90;;;25.60;90.70;;;;;;7378172;19;20345;-77
2022/07/05 08:03:32;;;;;;;2.10;1.90;;;26.00;89.00;;;;;;7381311;19;20896;-74
2022/07/05 08:05:57;;;;;;;1.65;1.50;;;26.30;90.70;;;;;;7375231;19;20321;-74
2022/07/05 08:08:23;;;;;;;1.60;1.40;;;26.70;90.20;;;;;;7380008;19;20376;-74
2022/07/05 08:10:48;;;;;;;1.73;1.43;;;26.80;88.50;;;;;;7380264;19;20868;-76
2022/07/05 08:13:14;;;;;;;1.50;1.40;;;27.10;88.40;;;;;;7379647;19;20380;-75
2022/07/05 08:15:39;;;;;;;2.13;1.40;;;27.30;84.30;;;;;;7374078;19;20340;-74
2022/07/05 08:23:34;;;;;;;1.30;1.20;;;27.80;78.30;;;;;;7381945;19;20420;-74
2022/07/05 08:25:59;;;;;;;1.10;1.10;;;27.50;81.60;;;;;;7375356;19;20380;-74
2022/07/05 08:28:26;;;;;;;1.30;1.20;;;27.60;80.80;;;;;;7381875;19;20316;-74
2022/07/05 08:30:52;;;;;;;1.25;1.10;;;27.50;79.60;;;;;;7376490;19;20370;-75
2022/07/05 08:33:17;;;;;;;1.10;1.05;;;27.90;78.00;;;;;;7377988;19;20384;-74
2022/07/05 08:35:43;;;;;;;2.50;1.33;;;28.10;78.20;;;;;;7374309;19;20356;-75
2022/07/05 08:38:08;;;;;;;1.23;1.13;;;28.20;80.70;;;;;;7382314;19;20348;-74
2022/07/05 08:40:35;;;;;;;1.10;1.10;;;27.60;77.70;;;;;;7378139;19;21011;-75
2022/07/05 08:43:02;;;;;;;0.95;0.95;;;27.50;77.50;;;;;;7378761;19;20320;-74
2022/07/05 08:45:28;;;;;;;2.80;1.10;;;27.70;77.40;;;;;;7374516;19;20977;-74
2022/07/05 08:47:54;;;;;;;1.00;1.00;;;27.80;78.60;;;;;;7380130;19;20358;-74
2022/07/05 08:50:20;;;;;;;1.13;1.08;;;28.20;77.40;;;;;;7378793;19;20341;-74
2022/07/05 08:52:46;;;;;;;1.55;1.40;;;28.00;75.70;;;;;;7379173;19;20865;-74
2022/07/05 08:55:12;;;;;;;2.27;2.00;;;27.40;72.40;;;;;;7375019;19;20344;-74
2022/07/05 08:57:37;;;;;;;7.57;4.93;;;27.10;73.30;;;;;;7378701;19;20336;-75
2022/07/05 09:00:03;;;;;;;8.47;6.73;;;27.00;77.60;;;;;;7380942;19;20676;-74
2022/07/05 09:02:29;;;;;;;4.75;4.00;;;27.30;78.20;;;;;;7375573;19;20356;-75
2022/07/05 09:04:54;;;;;;;5.23;4.13;;;27.80;74.40;;;;;;7377877;19;20333;-74
2022/07/05 09:07:20;;;;;;;5.63;4.53;;;28.10;74.50;;;;;;7378835;19;20658;-75
2022/07/05 09:09:47;;;;;;;5.30;4.80;;;28.30;76.30;;;;;;7380181;19;20313;-75
2022/07/05 09:12:13;;;;;;;6.15;5.03;;;28.60;66.10;;;;;;7372495;19;20332;-74
2022/07/05 09:14:39;;;;;;;6.32;4.75;;;28.40;70.00;;;;;;7378520;19;20364;-75
2022/07/05 09:17:04;;;;;;;9.60;7.70;;;28.50;72.70;;;;;;7377417;19;21319;-74
2022/07/05 09:19:31;;;;;;;14.98;10.95;;;28.40;74.20;;;;;;7378069;19;20757;-74
2022/07/05 09:22:04;;;;;;;11.95;9.23;;;28.50;72.10;;;;;;7377912;19;20304;-75
2022/07/05 09:24:30;;;;;;;9.57;7.23;;;28.50;70.20;;;;;;7377354;19;20337;-74
2022/07/05 09:27:02;;;;;;;8.18;6.10;;;28.70;71.40;;;;;;7373431;19;20313;-74
2022/07/05 09:29:27;;;;;;;8.10;6.32;;;28.50;71.00;;;;;;7379809;19;20687;-74
2022/07/05 09:31:53;;;;;;;6.82;5.80;;;28.50;67.50;;;;;;7377257;19;20352;-74
2022/07/05 09:34:19;;;;;;;8.13;7.07;;;28.30;70.80;;;;;;7376396;19;20380;-74
2022/07/05 09:36:52;;;;;;;8.65;5.90;;;27.90;73.10;;;;;;7370325;19;20785;-74
2022/07/05 09:39:34;;;;;;;11.30;8.05;;;27.90;75.30;;;;;;7375370;19;20840;-75
2022/07/05 09:42:20;;;;;;;12.85;9.10;;;27.90;73.00;;;;;;7373268;19;20413;-75
2022/07/05 09:44:47;;;;;;;10.77;8.97;;;28.10;70.80;;;;;;7270661;19;2004337;-75
2022/07/05 09:47:14;;;;;;;11.50;9.38;;;28.40;70.60;;;;;;7361963;19;20340;-75
2022/07/05 09:49:44;;;;;;;16.95;12.02;;;28.30;69.60;;;;;;7369957;19;20473;-74
2022/07/05 09:52:12;;;;;;;17.48;13.18;;;28.50;70.00;;;;;;7371178;19;21136;-74
2022/07/05 09:54:37;;;;;;;11.98;9.20;;;28.10;73.50;;;;;;7373430;19;20863;-75
2022/07/05 09:57:03;;;;;;;9.10;6.77;;;28.60;71.90;;;;;;7373714;19;20312;-75
2022/07/05 09:59:29;;;;;;;8.43;6.93;;;28.80;69.90;;;;;;7377354;19;20338;-74
2022/07/05 10:01:54;;;;;;;8.02;6.20;;;28.90;69.20;;;;;;7377048;19;21177;-74
2022/07/05 10:04:20;;;;;;;7.82;5.50;;;29.30;67.90;;;;;;7377274;19;20376;-75
2022/07/05 10:06:45;;;;;;;5.90;5.20;;;29.60;68.00;;;;;;7372528;19;20401;-75
2022/07/05 10:09:11;;;;;;;7.43;5.70;;;30.00;68.70;;;;;;7377932;19;20312;-74
2022/07/05 10:11:41;;;;;;;9.80;6.60;;;29.60;65.90;;;;;;7376114;19;20369;-74
2022/07/05 10:14:10;;;;;;;6.13;5.00;;;28.70;69.80;;;;;;7377559;19;20357;-74
2022/07/05 10:16:36;;;;;;;4.40;3.33;;;28.20;67.30;;;;;;7370958;19;20423;-74
2022/07/05 10:19:02;;;;;;;2.60;2.40;;;28.30;70.30;;;;;;7378469;19;20420;-74
2022/07/05 10:21:27;;;;;;;5.45;3.92;;;28.40;71.00;;;;;;7378504;19;20331;-74
2022/07/05 10:23:56;;;;;;;5.37;4.60;;;28.30;70.70;;;;;;7378514;19;20323;-74
2022/07/05 10:26:22;;;;;;;10.45;6.60;;;28.30;69.70;;;;;;7372464;19;20350;-74
2022/07/05 10:28:52;;;;;;;8.52;6.95;;;28.60;69.10;;;;;;7376440;19;20337;-75
2022/07/05 10:31:17;;;;;;;10.18;7.10;;;28.90;66.70;;;;;;7376842;19;21107;-75
2022/07/05 10:33:43;;;;;;;7.43;5.57;;;29.00;64.00;;;;;;7377285;19;20403;-74
2022/07/05 10:36:12;;;;;;;8.90;7.28;;;29.60;67.00;;;;;;7371501;19;20370;-76
2022/07/05 10:38:40;;;;;;;7.18;6.40;;;30.00;67.70;;;;;;7377331;19;20324;-75
2022/07/05 10:41:06;;;;;;;9.43;6.65;;;31.00;64.50;;;;;;7375628;19;20333;-74
2022/07/05 10:43:32;;;;;;;8.82;6.40;;;30.90;58.40;;;;;;7378363;19;20405;-74
2022/07/05 10:45:58;;;;;;;4.45;3.05;;;30.50;62.30;;;;;;7370452;19;20384;-74
2022/07/05 10:48:29;;;;;;;3.80;2.70;;;30.10;64.10;;;;;;7378564;19;20969;-74
2022/07/05 10:50:58;;;;;;;2.10;2.00;;;30.00;64.80;;;;;;7375722;19;20332;-74
2022/07/05 10:54:15;;;;;;;4.40;2.83;;;30.40;65.30;;;;;;7374241;19;20345;-75
2022/07/05 10:56:41;;;;;;;6.45;3.72;;;31.10;65.40;;;;;;7167372;19;2004635;-75
2022/07/05 10:59:09;;;;;;;7.20;4.27;;;31.30;63.80;;;;;;7375826;19;20338;-74
2022/07/05 11:01:39;;;;;;;5.67;4.20;;;31.00;58.40;;;;;;7374139;19;20332;-74
2022/07/05 11:04:05;;;;;;;5.35;3.35;;;30.80;61.10;;;;;;7375715;19;20366;-74
2022/07/05 11:06:42;;;;;;;3.70;3.17;;;30.80;63.90;;;;;;7380399;19;20328;-74
2022/07/05 11:09:10;;;;;;;4.55;3.75;;;30.10;64.80;;;;;;7281216;19;2004530;-73
2022/07/05 11:11:40;;;;;;;4.80;3.80;;;30.00;67.10;;;;;;7382882;19;20364;-74
2022/07/05 11:14:25;;;;;;;5.70;3.50;;;30.50;66.10;;;;;;7381629;19;20344;-74
2022/07/05 11:17:13;;;;;;;5.47;3.90;;;30.70;66.10;;;;;;7378314;19;20978;-74
2022/07/05 11:20:03;;;;;;;4.38;3.42;;;31.40;64.50;;;;;;7283064;19;2004226;-74
2022/07/05 11:22:29;;;;;;;8.98;6.38;;;31.60;63.70;;;;;;7381102;19;20868;-74
2022/07/05 11:24:55;;;;;;;8.97;6.97;;;31.60;61.30;;;;;;7380191;19;20324;-74
2022/07/05 11:27:20;;;;;;;8.20;6.20;;;32.10;60.10;;;;;;7381659;19;20333;-74
2022/07/05 11:29:50;;;;;;;8.67;5.90;;;32.40;61.60;;;;;;7383271;19;20690;-74
2022/07/05 11:32:25;;;;;;;6.88;4.10;;;32.10;60.60;;;;;;7379659;19;20369;-74
2022/07/05 11:34:52;;;;;;;4.90;3.80;;;32.40;60.40;;;;;;7378004;19;20375;-75
2022/07/05 11:37:18;;;;;;;5.15;3.88;;;32.00;60.10;;;;;;7379036;19;20312;-74
2022/07/05 11:39:45;;;;;;;4.65;3.45;;;31.40;59.50;;;;;;7379299;19;20341;-75
2022/07/05 11:42:11;;;;;;;4.75;3.13;;;31.90;61.70;;;;;;7382769;19;20649;-75
2022/07/05 11:44:40;;;;;;;3.20;2.87;;;32.50;61.10;;;;;;7377197;19;20329;-76
2022/07/05 11:47:05;;;;;;;4.88;3.88;;;33.30;60.80;;;;;;7381964;19;20391;-74
2022/07/05 11:49:31;;;;;;;3.97;3.25;;;33.60;56.10;;;;;;7383349;19;20451;-74
2022/07/05 11:52:00;;;;;;;2.93;2.70;;;33.80;57.50;;;;;;7380787;19;20301;-74
2022/07/05 11:54:29;;;;;;;3.42;1.90;;;33.10;57.80;;;;;;7380546;19;20324;-75
2022/07/05 11:56:56;;;;;;;3.13;1.70;;;31.90;59.10;;;;;;7378691;19;20345;-74
2022/07/05 11:59:23;;;;;;;3.65;2.17;;;31.30;59.70;;;;;;7381464;19;20337;-74
2022/07/05 12:01:48;;;;;;;2.30;2.10;;;31.90;60.00;;;;;;7378221;19;21134;-75
2022/07/05 12:04:27;;;;;;;2.58;1.90;;;32.40;59.90;;;;;;7380203;19;20369;-76
2022/07/05 12:06:52;;;;;;;3.30;2.57;;;32.90;59.50;;;;;;7378235;19;20373;-74
2022/07/05 12:09:25;;;;;;;7.68;4.90;;;32.90;55.90;;;;;;7383061;19;20344;-74
2022/07/05 12:14:47;;;;;;;12.60;7.30;;;33.40;54.20;;;;;;7275869;19;2006015;-76
2022/07/05 12:17:19;;;;;;;15.43;7.53;;;33.30;56.50;;;;;;7377757;19;20317;-74
2022/07/05 12:19:45;;;;;;;10.20;7.83;;;33.20;54.60;;;;;;7381206;19;20360;-76
2022/07/05 12:22:11;;;;;;;12.40;8.73;;;33.70;58.90;;;;;;7379301;19;20676;-75
2022/07/05 12:24:37;;;;;;;11.70;7.45;;;34.30;56.10;;;;;;7378815;19;20365;-74
2022/07/05 12:27:03;;;;;;;8.73;5.77;;;34.00;56.50;;;;;;7379684;19;20366;-75
2022/07/05 12:29:28;;;;;;;7.00;5.07;;;34.00;52.10;;;;;;7380916;19;20376;-74
2022/07/05 12:32:04;;;;;;;2.88;2.55;;;33.60;51.20;;;;;;7379126;19;20348;-74
2022/07/05 12:34:30;;;;;;;1.55;1.30;;;33.10;54.90;;;;;;7375701;19;20309;-74
2022/07/05 12:36:56;;;;;;;1.30;1.20;;;33.00;53.30;;;;;;7376222;19;21333;-73
2022/07/05 12:39:22;;;;;;;1.08;1.08;;;32.10;51.10;;;;;;7377951;19;20321;-73
2022/07/05 12:41:48;;;;;;;1.93;1.40;;;33.50;55.40;;;;;;7378084;19;20351;-74
2022/07/05 12:44:17;;;;;;;1.80;1.37;;;34.50;54.20;;;;;;7379102;19;20416;-75
2022/07/05 12:46:44;;;;;;;2.95;2.60;;;34.70;54.30;;;;;;7374302;19;20347;-74